Flight Track Log - Related Links

Times and Time Zones

All times are in EDT time to prevent confusion due to time zone crossing. See the N920AC flight status page for this flight to view local times or setup timezone preferences in your user account.

Time Position Orientation Groundspeed Altitude Reporting Facility
EDT Latitude Longitude Course Direction KTS MPH feet Rate Location/Type
Wed 06:34:00 PM 26.2813 -81.8427 340° North  Level Estimated
Wed 06:35:00 PM 26.3039 -81.8508 342° North  Level FlightAware Approximate
Wed 06:36:00 PM 26.3265 -81.8589 342° North  Level FlightAware Approximate
Wed 06:37:00 PM 26.3491 -81.8670 342° North  Level FlightAware Approximate
Wed 06:38:00 PM 26.3717 -81.8750 342° North  Level FlightAware Approximate
Wed 06:39:00 PM 26.3943 -81.8831 342° North  Level FlightAware Approximate
Wed 06:40:00 PM 26.4168 -81.8912 342° North  Level FlightAware Approximate
Wed 06:41:00 PM 26.4394 -81.8993 342° North  Level FlightAware Approximate
Wed 06:42:00 PM 26.4620 -81.9074 342° North  Level FlightAware Approximate
Wed 06:43:00 PM 26.4845 -81.9155 342° North  Level FlightAware Approximate
Wed 06:44:00 PM 26.5071 -81.9236 342° North  Level FlightAware Approximate
Wed 06:45:00 PM 26.5297 -81.9317 342° North  Level FlightAware Approximate
Wed 06:46:00 PM 26.5522 -81.9398 342° North  Level FlightAware Approximate
Wed 06:47:00 PM 26.5748 -81.9480 342° North  Level FlightAware Approximate
Wed 06:48:00 PM 26.5974 -81.9561 342° North  Level FlightAware Approximate
Wed 06:49:00 PM 26.6200 -81.9642 342° North  Level FlightAware Approximate
Wed 06:50:00 PM 26.6425 -81.9723 342° North  Level FlightAware Approximate
Wed 06:51:00 PM 26.6651 -81.9805 342° North  Level FlightAware Approximate
Wed 06:52:00 PM 26.6877 -81.9886 342° North  Level FlightAware Approximate
Wed 06:53:00 PM 26.7102 -81.9967 342° North  Level FlightAware Approximate
Wed 06:54:00 PM 26.7328 -82.0049 342° North  Level FlightAware Approximate
Wed 06:55:00 PM 26.7554 -82.0130 342° North  Level FlightAware Approximate
Wed 06:56:00 PM 26.7780 -82.0211 342° North  Level FlightAware Approximate
Wed 06:57:00 PM 26.8005 -82.0293 342° North  Level FlightAware Approximate
Wed 06:58:00 PM 26.8213 -82.0420 325° Northwest  Level Estimated
Wed 06:59:00 PM 26.8429 -82.0530 336° Northwest  Level FlightAware Approximate
Wed 07:00:00 PM 26.8645 -82.0640 336° Northwest  Level FlightAware Approximate
Wed 07:01:00 PM 26.8861 -82.0750 336° Northwest  Level FlightAware Approximate
Wed 07:02:00 PM 26.9077 -82.0860 336° Northwest  Level FlightAware Approximate
Wed 07:02:41 PM 26.9333 -82.0833 333° Northwest 123 142 6,000  Level Tampa TRACON
Wed 07:03:00 PM 26.9284 -82.0989 332° Northwest  Level Estimated
Wed 07:03:17 PM 26.9500 -82.1000 318° Northwest 125 144 6,000  Level Tampa TRACON
Wed 07:04:00 PM 26.9496 -82.1109 333° Northwest  Level FlightAware Approximate
Wed 07:04:17 PM 26.9833 -82.1167 336° Northwest 124 143 6,000  Level Tampa TRACON
Wed 07:05:00 PM 26.9708 -82.1228 333° Northwest  Level FlightAware Approximate
Wed 07:05:17 PM 27.0000 -82.1333 318° Northwest 123 142 6,100  Level Tampa TRACON
Wed 07:06:00 PM 26.9919 -82.1348 333° Northwest  Level FlightAware Approximate
Wed 07:06:17 PM 27.0333 -82.1667 318° Northwest 118 136 6,100  Level Tampa TRACON
Wed 07:07:00 PM 27.0131 -82.1468 333° Northwest  Level FlightAware Approximate
Wed 07:07:17 PM 27.0667 -82.1833 336° Northwest 120 138 6,100  Level Tampa TRACON
Wed 07:08:17 PM 27.1000 -82.2000 336° Northwest 123 142 6,100  Level Tampa TRACON
Wed 07:09:17 PM 27.1167 -82.2167 318° Northwest 123 142 6,100 -50 Level Tampa TRACON
Wed 07:10:17 PM 27.1500 -82.2333 336° Northwest 125 144 6,000 -211 Descending Tampa TRACON
Wed 07:11:11 PM 27.1833 -82.2500 336° Northwest 128 147 5,700 -368 Descending Tampa TRACON
Wed 07:12:11 PM 27.2167 -82.2667 336° Northwest 136 157 5,300 -550 Descending Tampa TRACON
Wed 07:13:11 PM 27.2500 -82.3000 318° Northwest 138 159 4,600 -650 Descending Tampa TRACON
Wed 07:14:11 PM 27.2833 -82.3167 336° Northwest 137 158 4,000 -286 Descending Tampa TRACON
Wed 07:15:17 PM 27.3167 -82.3333 336° Northwest 121 139 4,000  Level Tampa TRACON
Wed 07:16:17 PM 27.3333 -82.3500 318° Northwest 113 130 4,000  Level Tampa TRACON
Wed 07:17:17 PM 27.3667 -82.3667 336° Northwest 121 139 4,000  Level Tampa TRACON
Wed 07:18:12 PM 27.4000 -82.3833 336° Northwest 115 132 4,000 -150 Level Tampa TRACON
Wed 07:19:17 PM 27.4333 -82.4000 336° Northwest 127 146 3,700 -400 Descending Tampa TRACON
Wed 07:20:12 PM 27.4500 -82.4167 318° Northwest 129 148 3,200 -496 Descending Tampa TRACON
Wed 07:21:18 PM 27.4833 -82.4500 318° Northwest 131 151 2,700 -286 Descending Tampa TRACON
Wed 07:22:18 PM 27.5167 -82.4667 336° Northwest 121 139 2,600  Descending Tampa TRACON
Wed 07:23:18 PM 27.5500 -82.4833 336° Northwest 110 127 2,700 -105 Climbing Tampa TRACON
Wed 07:24:12 PM 27.5667 -82.5000 318° Northwest 117 135 2,400 -368 Descending Tampa TRACON
Wed 07:25:12 PM 27.6000 -82.5167 336° Northwest 124 143 2,000 -400 Descending Tampa TRACON
Wed 07:26:12 PM 27.6333 -82.5500 318° Northwest 127 146 1,600 -300 Descending Tampa TRACON
Wed 07:27:12 PM 27.6500 -82.5667 318° Northwest 125 144 1,400 -300 Descending Tampa TRACON
Wed 07:28:12 PM 27.6833 -82.5833 336° Northwest 129 148 1,000 -200 Descending Tampa TRACON
Wed 07:29:12 PM 27.7167 -82.6000 336° Northwest 114 131 1,000  Level Tampa TRACON
Wed 07:30:12 PM 27.7500 -82.6167 336° Northwest 115 132 1,000 -250 Level Tampa TRACON
Wed 07:31:12 PM 27.7500 -82.6500 270° West 94 108 500 -500 Descending Tampa TRACON
Wed 07:33:00 PM 27.7651 -82.6270 90° East  Level Estimated
Wed 07:40:00 PM 27.7651 -82.6270 326° Northwest  Level Estimated

Login

Don't have an account? Register now (free) for customized features, flight alerts, and more!